createdAt,value
2019-02-26T00:01:28.694Z,63.88
2019-02-26T00:03:59.615Z,63.27
2019-02-26T00:06:30.421Z,62.10
2019-02-26T00:09:03.688Z,62.03
2019-02-26T00:11:38.002Z,61.89
2019-02-26T00:14:13.166Z,62.37
2019-02-26T00:16:42.378Z,63.28
2019-02-26T00:19:14.683Z,64.41
2019-02-26T00:21:47.473Z,65.65
2019-02-26T00:24:18.237Z,65.96
2019-02-26T00:26:49.253Z,65.49
2019-02-26T00:29:21.155Z,66.22
2019-02-26T00:31:55.430Z,67.03
2019-02-26T00:34:25.512Z,67.05
2019-02-26T00:36:57.264Z,67.51
2019-02-26T00:39:31.365Z,67.33
2019-02-26T00:42:04.690Z,67.82
2019-02-26T00:44:37.326Z,68.11
2019-02-26T00:47:09.036Z,67.78
2019-02-26T00:49:41.904Z,68.07
2019-02-26T00:52:13.370Z,67.90
2019-02-26T00:54:44.975Z,68.05
2019-02-26T00:57:15.998Z,68.06
2019-02-26T00:59:48.080Z,68.20
2019-02-26T01:02:20.389Z,68.45
2019-02-26T01:04:51.159Z,68.57
2019-02-26T01:07:23.752Z,68.73
2019-02-26T01:09:56.837Z,69.29
2019-02-26T01:12:27.433Z,69.47
2019-02-26T01:14:58.212Z,69.84
2019-02-26T01:17:31.091Z,70.27
2019-02-26T01:20:05.360Z,70.12
2019-02-26T01:22:35.352Z,69.96
2019-02-26T01:25:07.566Z,70.10
2019-02-26T01:27:38.443Z,70.53
2019-02-26T01:30:11.012Z,70.30
2019-02-26T01:32:42.704Z,70.65
2019-02-26T01:35:14.219Z,71.48
2019-02-26T01:37:45.096Z,71.46
2019-02-26T01:40:20.571Z,72.22
2019-02-26T01:42:52.201Z,73.32
2019-02-26T01:45:22.363Z,73.23
2019-02-26T01:47:54.159Z,73.20
2019-02-26T01:50:24.956Z,73.32
2019-02-26T01:52:56.778Z,72.78
2019-02-26T01:55:28.636Z,73.22
2019-02-26T01:57:59.497Z,73.46
2019-02-26T02:00:30.381Z,73.86
2019-02-26T02:03:01.755Z,74.46
2019-02-26T02:05:32.648Z,74.54
2019-02-26T02:08:03.775Z,75.23
2019-02-26T02:10:35.065Z,75.80
2019-02-26T02:13:07.156Z,75.91
2019-02-26T02:15:40.015Z,75.57
2019-02-26T02:18:11.274Z,75.06
2019-02-26T02:20:42.216Z,75.63
2019-02-26T02:23:13.071Z,75.47
2019-02-26T02:25:45.646Z,75.61
2019-02-26T02:28:19.585Z,75.45
2019-02-26T02:30:50.195Z,75.85
2019-02-26T02:33:24.197Z,76.44
2019-02-26T02:35:53.938Z,76.52
2019-02-26T02:38:24.808Z,76.31
2019-02-26T02:40:55.648Z,76.09
2019-02-26T02:43:26.774Z,75.53
2019-02-26T02:45:59.033Z,75.36
2019-02-26T02:48:30.428Z,75.40
2019-02-26T02:51:02.165Z,76.22
2019-02-26T02:53:35.026Z,76.57
2019-02-26T02:56:07.332Z,76.34
2019-02-26T02:58:38.996Z,76.60
2019-02-26T03:01:13.694Z,76.72
2019-02-26T03:03:45.259Z,76.60
2019-02-26T03:06:16.660Z,75.38
2019-02-26T03:08:48.892Z,75.55
2019-02-26T03:11:20.716Z,75.80
2019-02-26T03:13:53.904Z,76.16
2019-02-26T03:16:27.144Z,75.66
2019-02-26T03:18:58.538Z,75.57
2019-02-26T03:21:30.678Z,75.95
2019-02-26T03:24:03.333Z,76.15
2019-02-26T03:26:34.654Z,76.82
2019-02-26T03:29:05.723Z,77.70
2019-02-26T03:31:41.206Z,78.04
2019-02-26T03:34:14.625Z,78.64
2019-02-26T03:36:45.451Z,79.02
2019-02-26T03:39:15.597Z,79.02
2019-02-26T03:41:48.632Z,79.30
2019-02-26T03:44:20.118Z,80.03
2019-02-26T03:46:51.698Z,80.49
2019-02-26T03:49:26.410Z,80.53
2019-02-26T03:51:59.044Z,80.65
2019-02-26T03:54:28.455Z,80.80
2019-02-26T03:56:59.542Z,81.50
2019-02-26T03:59:31.227Z,81.78
2019-02-26T04:02:02.326Z,81.60
2019-02-26T04:04:33.721Z,80.97
2019-02-26T04:07:07.182Z,81.28
2019-02-26T04:09:41.832Z,81.50
2019-02-26T04:12:11.298Z,81.70
2019-02-26T04:15:01.115Z,81.81
2019-02-26T04:17:33.668Z,81.52
2019-02-26T04:20:06.322Z,81.81
2019-02-26T04:22:42.279Z,81.60
2019-02-26T04:25:24.687Z,81.39
2019-02-26T04:28:27.379Z,81.37
2019-02-26T04:31:44.563Z,81.82
2019-02-26T04:34:33.735Z,82.38
2019-02-26T04:37:35.249Z,82.66
2019-02-26T04:40:55.391Z,82.54
2019-02-26T04:43:57.374Z,83.27
2019-02-26T04:46:39.480Z,82.86
2019-02-26T04:49:10.759Z,82.75
2019-02-26T04:51:42.681Z,83.24
2019-02-26T04:54:21.163Z,83.56
2019-02-26T04:56:48.756Z,83.98
2019-02-26T04:59:20.701Z,83.93
2019-02-26T05:01:52.279Z,83.30
2019-02-26T05:04:24.397Z,83.03
2019-02-26T05:06:56.374Z,83.44
2019-02-26T05:09:29.800Z,83.52
2019-02-26T05:12:00.033Z,83.64
2019-02-26T05:14:31.544Z,83.81
2019-02-26T05:17:02.440Z,83.83
2019-02-26T05:19:33.336Z,83.98
2019-02-26T05:22:06.909Z,84.42
2019-02-26T05:24:38.558Z,84.74
2019-02-26T05:27:15.631Z,84.99
2019-02-26T05:29:49.051Z,84.86
2019-02-26T05:32:21.807Z,84.85
2019-02-26T05:34:52.496Z,84.29
2019-02-26T05:37:23.301Z,84.25
2019-02-26T05:39:54.810Z,84.06
2019-02-26T05:42:25.908Z,83.92
2019-02-26T05:44:59.824Z,84.02
2019-02-26T05:47:29.842Z,83.88
2019-02-26T05:50:02.689Z,84.30
2019-02-26T05:52:35.928Z,83.92
2019-02-26T05:55:06.931Z,86.16
2019-02-26T05:57:37.805Z,83.33
2019-02-26T06:00:13.467Z,82.61
2019-02-26T06:02:44.773Z,83.21
2019-02-26T06:05:17.610Z,83.10
2019-02-26T06:07:47.388Z,84.26
2019-02-26T06:10:19.460Z,83.24
2019-02-26T06:12:51.282Z,83.46
2019-02-26T06:15:23.021Z,84.15
2019-02-26T06:17:55.981Z,84.32
2019-02-26T06:20:29.225Z,84.06
2019-02-26T06:22:59.543Z,84.08
2019-02-26T06:25:31.895Z,84.44
2019-02-26T06:28:06.861Z,84.59
2019-02-26T06:30:35.835Z,85.00
2019-02-26T06:33:09.124Z,85.93
2019-02-26T06:35:40.693Z,92.89
2019-02-26T06:38:12.617Z,87.92
2019-02-26T06:40:47.137Z,86.68
2019-02-26T06:43:16.135Z,85.67
2019-02-26T06:45:47.795Z,86.09
2019-02-26T06:48:20.892Z,85.80
2019-02-26T06:50:51.715Z,86.34
2019-02-26T06:53:22.603Z,86.36
2019-02-26T06:55:53.647Z,86.11
2019-02-26T06:58:28.530Z,85.64
2019-02-26T07:01:00.082Z,85.48
2019-02-26T07:03:30.960Z,85.56
2019-02-26T07:06:04.842Z,85.53
2019-02-26T07:08:34.631Z,85.77
2019-02-26T07:11:07.207Z,85.66
2019-02-26T07:13:39.207Z,85.49
2019-02-26T07:16:11.296Z,84.61
2019-02-26T07:18:42.199Z,84.96
2019-02-26T07:21:13.972Z,84.79
2019-02-26T07:23:45.818Z,84.41
2019-02-26T07:26:18.390Z,83.67
2019-02-26T07:28:50.931Z,83.66
2019-02-26T07:31:24.177Z,82.85
2019-02-26T07:33:56.403Z,81.91
2019-02-26T07:36:28.186Z,81.54
2019-02-26T07:38:59.201Z,81.55
2019-02-26T07:41:30.416Z,80.67
2019-02-26T07:44:01.804Z,80.12
2019-02-26T07:46:33.701Z,80.37
2019-02-26T07:49:07.331Z,80.84
2019-02-26T07:51:38.631Z,80.73
2019-02-26T07:54:10.348Z,80.11
2019-02-26T07:56:41.318Z,79.58
2019-02-26T07:59:12.552Z,79.39
2019-02-26T08:01:47.026Z,79.47
2019-02-26T08:04:18.484Z,79.83
2019-02-26T08:06:49.285Z,79.95
2019-02-26T08:09:23.186Z,79.24
2019-02-26T08:11:52.747Z,78.24
2019-02-26T08:14:25.656Z,77.47
2019-02-26T08:16:59.447Z,76.96
2019-02-26T08:19:29.980Z,75.84
2019-02-26T08:22:01.959Z,75.40
2019-02-26T08:24:33.988Z,75.33
2019-02-26T08:27:06.034Z,75.29
2019-02-26T08:29:38.273Z,74.71
2019-02-26T08:32:09.251Z,73.95
2019-02-26T08:34:40.457Z,73.52
2019-02-26T08:37:11.567Z,73.66
2019-02-26T08:39:42.389Z,73.34
2019-02-26T08:42:13.657Z,72.62
2019-02-26T08:44:46.847Z,72.44
2019-02-26T08:47:19.262Z,71.76
2019-02-26T08:49:50.268Z,71.08
2019-02-26T08:52:24.247Z,70.88
2019-02-26T08:54:54.430Z,70.68
2019-02-26T08:57:25.401Z,70.26
2019-02-26T08:59:56.321Z,71.77
2019-02-26T09:02:27.209Z,70.47
2019-02-26T09:04:59.271Z,70.11
2019-02-26T09:07:30.961Z,69.83
2019-02-26T09:10:02.068Z,69.24
2019-02-26T09:12:33.146Z,68.47
2019-02-26T09:15:04.482Z,67.99
2019-02-26T09:17:37.085Z,67.19
2019-02-26T09:20:12.385Z,67.24
2019-02-26T09:22:48.010Z,67.46
2019-02-26T09:25:16.876Z,67.50
2019-02-26T09:27:47.695Z,66.38
2019-02-26T09:30:19.296Z,65.89
2019-02-26T09:32:52.395Z,65.54
2019-02-26T09:35:26.868Z,65.29
2019-02-26T09:38:00.091Z,64.76
2019-02-26T09:40:29.218Z,64.16
2019-02-26T09:43:00.878Z,64.25
2019-02-26T09:45:31.677Z,63.34
2019-02-26T09:48:02.746Z,62.84
2019-02-26T09:50:33.616Z,62.42
2019-02-26T09:53:04.884Z,62.64
2019-02-26T09:55:36.096Z,63.01
2019-02-26T09:58:07.099Z,62.32
2019-02-26T10:00:37.974Z,62.11
2019-02-26T10:03:11.035Z,61.65
2019-02-26T10:05:41.445Z,61.85
2019-02-26T10:08:12.295Z,61.77
2019-02-26T10:10:43.395Z,60.91
2019-02-26T10:13:15.890Z,60.59
2019-02-26T10:15:47.257Z,60.27
2019-02-26T10:18:18.378Z,60.16
2019-02-26T10:20:50.408Z,59.87
2019-02-26T10:23:23.976Z,60.09
2019-02-26T10:25:57.484Z,59.94
2019-02-26T10:28:27.428Z,58.87
2019-02-26T10:31:01.787Z,58.26
2019-02-26T10:33:31.582Z,58.01
2019-02-26T10:36:05.381Z,57.55
2019-02-26T10:38:38.333Z,56.95
2019-02-26T10:41:09.426Z,57.56
2019-02-26T10:43:40.736Z,55.86
2019-02-26T10:46:11.638Z,56.99
2019-02-26T10:48:43.420Z,55.91
2019-02-26T10:51:16.791Z,55.96
2019-02-26T10:53:47.951Z,54.84
2019-02-26T10:56:18.914Z,54.92
2019-02-26T10:58:50.020Z,54.80
2019-02-26T11:01:23.518Z,53.21
2019-02-26T11:03:56.083Z,54.41
2019-02-26T11:06:27.933Z,52.88
2019-02-26T11:09:01.761Z,52.19
2019-02-26T11:11:35.667Z,53.00
2019-02-26T11:14:08.317Z,51.67
2019-02-26T11:16:39.210Z,52.27
2019-02-26T11:19:12.209Z,51.53
2019-02-26T11:21:42.789Z,52.24
2019-02-26T11:24:13.619Z,51.25
2019-02-26T11:26:44.509Z,51.29
2019-02-26T11:29:15.401Z,50.12
2019-02-26T11:31:47.746Z,49.69
2019-02-26T11:34:18.945Z,49.75
2019-02-26T11:36:50.068Z,49.66
2019-02-26T11:39:21.194Z,49.52
2019-02-26T11:41:53.767Z,49.05
2019-02-26T11:44:25.781Z,49.71
2019-02-26T11:46:58.253Z,48.43
2019-02-26T11:49:31.064Z,47.56
2019-02-26T11:52:04.435Z,48.09
2019-02-26T11:54:37.134Z,47.56
2019-02-26T11:57:10.190Z,47.59
2019-02-26T11:59:42.713Z,46.89
2019-02-26T12:02:12.973Z,46.12
2019-02-26T12:04:43.802Z,46.15
2019-02-26T12:07:14.683Z,46.46
2019-02-26T12:09:45.733Z,45.02
2019-02-26T12:12:16.659Z,44.75
2019-02-26T12:14:48.425Z,45.58
2019-02-26T12:17:20.632Z,45.44
2019-02-26T12:19:53.363Z,44.42
2019-02-26T12:22:25.209Z,44.70
2019-02-26T12:24:58.807Z,45.48
2019-02-26T12:27:29.582Z,45.58
2019-02-26T12:30:00.627Z,44.19
2019-02-26T12:32:31.509Z,44.38
2019-02-26T12:35:03.408Z,44.43
2019-02-26T12:37:35.284Z,44.39
2019-02-26T12:40:06.998Z,43.90
2019-02-26T12:42:37.870Z,43.73
2019-02-26T12:45:13.589Z,43.21
2019-02-26T12:47:45.548Z,43.00
2019-02-26T12:50:16.704Z,43.95
2019-02-26T12:52:50.955Z,43.67
2019-02-26T12:55:21.974Z,42.52
2019-02-26T12:57:56.138Z,42.34
2019-02-26T13:00:26.270Z,42.02
2019-02-26T13:02:57.166Z,41.32
2019-02-26T13:05:27.981Z,42.30
2019-02-26T13:07:58.790Z,41.20
2019-02-26T13:10:29.680Z,41.71
2019-02-26T13:13:06.555Z,41.74
2019-02-26T13:15:33.489Z,40.87
2019-02-26T13:18:04.372Z,40.57
2019-02-26T13:20:35.968Z,41.07
2019-02-26T13:23:17.128Z,41.55
2019-02-26T13:25:39.956Z,41.60
2019-02-26T13:28:12.352Z,41.18
2019-02-26T13:30:43.159Z,40.86
2019-02-26T13:33:14.161Z,40.92
2019-02-26T13:35:50.919Z,41.15
2019-02-26T13:38:24.449Z,40.26
2019-02-26T13:40:55.863Z,40.55
2019-02-26T13:43:25.080Z,40.18
2019-02-26T13:45:56.454Z,40.25
2019-02-26T13:48:27.573Z,40.73
2019-02-26T13:50:58.736Z,40.48
2019-02-26T13:53:29.538Z,41.15
2019-02-26T13:56:00.368Z,40.35
2019-02-26T13:58:32.318Z,40.44
2019-02-26T14:01:03.329Z,39.49
2019-02-26T14:03:34.666Z,38.73
2019-02-26T14:06:05.814Z,39.65
2019-02-26T14:08:36.924Z,40.26
2019-02-26T14:11:08.233Z,39.92
2019-02-26T14:13:39.119Z,39.32
2019-02-26T14:16:09.954Z,39.38
2019-02-26T14:18:41.063Z,39.33
2019-02-26T14:21:11.958Z,38.60
2019-02-26T14:23:43.083Z,39.58
2019-02-26T14:26:14.042Z,41.02
2019-02-26T14:28:45.892Z,37.74
2019-02-26T14:31:17.020Z,38.35
2019-02-26T14:33:47.900Z,42.11
2019-02-26T14:36:18.797Z,39.16
2019-02-26T14:38:49.686Z,38.57
2019-02-26T14:41:20.799Z,37.91
2019-02-26T14:43:51.691Z,38.95
2019-02-26T14:46:22.983Z,38.80
2019-02-26T14:48:53.832Z,40.29
2019-02-26T14:51:25.064Z,38.32
2019-02-26T14:53:57.763Z,38.34
2019-02-26T14:56:28.953Z,38.29
2019-02-26T14:59:00.968Z,39.34
2019-02-26T15:01:31.879Z,38.06
2019-02-26T15:04:02.914Z,37.54
2019-02-26T15:06:34.071Z,37.86
2019-02-26T15:09:05.520Z,38.25
2019-02-26T15:11:37.608Z,38.71
2019-02-26T15:14:08.489Z,38.68
2019-02-26T15:16:40.284Z,38.56
2019-02-26T15:19:11.246Z,38.26
2019-02-26T15:21:42.075Z,38.21
2019-02-26T15:24:13.502Z,38.75
2019-02-26T15:26:44.412Z,38.02
2019-02-26T15:29:15.908Z,38.45
2019-02-26T15:31:46.813Z,37.71
2019-02-26T15:34:17.984Z,38.13
2019-02-26T15:36:48.882Z,38.77
2019-02-26T15:39:19.751Z,37.43
2019-02-26T15:41:51.263Z,37.78
2019-02-26T15:44:22.041Z,38.57
2019-02-26T15:46:53.095Z,38.25
2019-02-26T15:49:23.902Z,39.65
2019-02-26T15:51:54.729Z,39.67
2019-02-26T15:54:27.293Z,38.96
2019-02-26T15:57:00.496Z,39.17
2019-02-26T15:59:31.023Z,39.58
2019-02-26T16:02:02.129Z,40.34
2019-02-26T16:04:32.925Z,39.08
2019-02-26T16:07:04.120Z,39.67
2019-02-26T16:09:35.758Z,40.41
2019-02-26T16:12:06.505Z,41.17
2019-02-26T16:14:37.313Z,39.71
2019-02-26T16:17:08.613Z,41.75
2019-02-26T16:19:39.651Z,43.01
2019-02-26T16:22:11.061Z,44.56
2019-02-26T16:24:42.116Z,45.58
2019-02-26T16:27:12.928Z,46.48
2019-02-26T16:29:44.272Z,47.63
2019-02-26T16:32:15.152Z,48.36
2019-02-26T16:34:46.252Z,50.12
2019-02-26T16:37:17.442Z,49.75
2019-02-26T16:39:48.459Z,49.17
2019-02-26T16:42:19.599Z,50.24
2019-02-26T16:44:50.627Z,51.94
2019-02-26T16:47:21.474Z,53.29
2019-02-26T16:49:52.623Z,52.05
2019-02-26T16:52:27.621Z,53.30
2019-02-26T16:54:56.245Z,54.49
2019-02-26T16:57:28.180Z,54.61
2019-02-26T16:59:59.964Z,54.42
2019-02-26T17:02:31.118Z,55.03
2019-02-26T17:05:01.908Z,54.11
2019-02-26T17:07:33.408Z,53.27
2019-02-26T17:10:04.933Z,53.27
2019-02-26T17:12:36.492Z,53.54
2019-02-26T17:15:08.938Z,54.32
2019-02-26T17:17:39.749Z,54.48
2019-02-26T17:20:10.866Z,54.11
2019-02-26T17:22:42.113Z,54.63
2019-02-26T17:25:13.017Z,55.25
2019-02-26T17:27:43.915Z,55.70
2019-02-26T17:30:15.040Z,56.53
2019-02-26T17:32:46.043Z,56.33
2019-02-26T17:35:17.075Z,56.82
2019-02-26T17:37:48.031Z,57.25
2019-02-26T17:40:19.223Z,58.58
2019-02-26T17:42:51.139Z,59.22
2019-02-26T17:45:22.733Z,59.24
2019-02-26T17:47:56.695Z,59.36
2019-02-26T17:50:32.303Z,59.31
2019-02-26T17:53:03.146Z,58.49
2019-02-26T17:55:34.445Z,59.20
2019-02-26T17:58:09.793Z,59.26
2019-02-26T18:00:40.660Z,59.58
2019-02-26T18:03:11.895Z,60.25
2019-02-26T18:05:51.175Z,60.51
2019-02-26T18:08:19.088Z,60.99
2019-02-26T18:10:49.501Z,61.55
2019-02-26T18:13:21.269Z,61.60
2019-02-26T18:15:56.033Z,62.20
2019-02-26T18:18:25.352Z,62.25
2019-02-26T18:20:56.263Z,62.39
2019-02-26T18:23:29.235Z,62.39
2019-02-26T18:26:00.506Z,62.65
2019-02-26T18:28:33.238Z,62.99
2019-02-26T18:31:04.932Z,63.36
2019-02-26T18:33:37.544Z,63.52
2019-02-26T18:36:09.228Z,63.69
2019-02-26T18:38:42.025Z,63.89
2019-02-26T18:41:14.199Z,64.09
2019-02-26T18:43:47.531Z,64.45
2019-02-26T18:46:19.705Z,66.69
2019-02-26T18:48:50.872Z,65.85
2019-02-26T18:51:22.683Z,65.45
2019-02-26T18:53:54.856Z,65.04
2019-02-26T18:56:28.160Z,64.90
2019-02-26T18:58:59.508Z,64.81
2019-02-26T19:01:32.603Z,64.73
2019-02-26T19:04:05.103Z,64.75
2019-02-26T19:06:36.821Z,65.01
2019-02-26T19:09:11.518Z,65.17
2019-02-26T19:11:42.117Z,65.52
2019-02-26T19:14:14.741Z,65.03
2019-02-26T19:16:46.044Z,64.51
2019-02-26T19:19:18.492Z,64.53
2019-02-26T19:21:51.743Z,64.55
2019-02-26T19:24:23.467Z,63.91
2019-02-26T19:26:56.202Z,64.00
2019-02-26T19:29:31.172Z,63.81
2019-02-26T19:32:03.780Z,63.90
2019-02-26T19:34:35.338Z,64.45
2019-02-26T19:37:07.227Z,64.76
2019-02-26T19:39:38.759Z,64.03
2019-02-26T19:42:09.703Z,64.74
2019-02-26T19:44:41.292Z,65.99
2019-02-26T19:47:14.286Z,65.32
2019-02-26T19:49:45.748Z,65.57
2019-02-26T19:52:16.939Z,65.37
2019-02-26T19:54:48.808Z,65.95
2019-02-26T19:57:19.737Z,65.36
2019-02-26T19:59:50.932Z,65.86
2019-02-26T20:02:23.467Z,65.06
2019-02-26T20:04:56.076Z,65.13
2019-02-26T20:07:29.741Z,64.34
2019-02-26T20:10:01.392Z,64.78
2019-02-26T20:12:33.385Z,64.00
2019-02-26T20:15:06.227Z,63.77
2019-02-26T20:17:38.297Z,63.03
2019-02-26T20:20:10.870Z,63.16
2019-02-26T20:22:43.060Z,62.33
2019-02-26T20:25:16.562Z,61.82
2019-02-26T20:27:48.768Z,62.23
2019-02-26T20:30:20.244Z,62.02
2019-02-26T20:32:51.352Z,59.75
2019-02-26T20:35:23.610Z,58.91
2019-02-26T20:37:58.665Z,60.68
2019-02-26T20:40:29.083Z,59.93
2019-02-26T20:43:01.829Z,60.07
2019-02-26T20:45:33.883Z,60.51
2019-02-26T20:48:06.871Z,61.49
2019-02-26T20:50:38.606Z,62.77
2019-02-26T20:53:09.764Z,62.62
2019-02-26T20:55:41.475Z,63.45
2019-02-26T20:58:12.675Z,63.35
2019-02-26T21:00:44.247Z,63.64
2019-02-26T21:03:15.866Z,63.69
2019-02-26T21:05:46.908Z,63.55
2019-02-26T21:08:19.049Z,63.73
2019-02-26T21:10:50.240Z,63.55
2019-02-26T21:13:21.324Z,63.59
2019-02-26T21:15:52.200Z,63.87
2019-02-26T21:18:25.428Z,63.59
2019-02-26T21:20:58.191Z,62.98
2019-02-26T21:23:29.456Z,63.32
2019-02-26T21:26:00.315Z,63.09
2019-02-26T21:28:34.248Z,62.73
2019-02-26T21:31:05.780Z,62.99
2019-02-26T21:33:38.202Z,63.34
2019-02-26T21:36:09.704Z,63.35
2019-02-26T21:38:42.153Z,63.23
2019-02-26T21:41:14.663Z,63.75
2019-02-26T21:43:46.209Z,63.66
2019-02-26T21:46:22.545Z,63.64
2019-02-26T21:48:51.733Z,63.73
2019-02-26T21:51:23.316Z,63.50
2019-02-26T21:53:57.727Z,63.76
2019-02-26T21:56:29.253Z,63.70
2019-02-26T21:59:01.812Z,64.88
2019-02-26T22:01:33.162Z,65.85
2019-02-26T22:04:05.006Z,66.47
2019-02-26T22:06:36.963Z,67.11
2019-02-26T22:09:08.854Z,67.35
2019-02-26T22:11:42.356Z,68.90
2019-02-26T22:14:17.696Z,68.81
2019-02-26T22:16:51.511Z,69.68
2019-02-26T22:19:22.183Z,69.88
2019-02-26T22:21:53.902Z,70.35
2019-02-26T22:24:26.636Z,70.34
2019-02-26T22:27:00.158Z,70.67
2019-02-26T22:29:34.179Z,70.96
2019-02-26T22:32:05.732Z,71.38
2019-02-26T22:34:37.089Z,71.20
2019-02-26T22:37:08.746Z,71.15
2019-02-26T22:39:39.548Z,71.04
2019-02-26T22:42:11.672Z,71.20
2019-02-26T22:44:43.234Z,71.24
2019-02-26T22:47:14.646Z,71.66
2019-02-26T22:49:46.415Z,71.64
2019-02-26T22:52:18.204Z,71.64
2019-02-26T22:54:49.360Z,71.57
2019-02-26T22:57:21.343Z,71.61
2019-02-26T22:59:53.666Z,71.91
2019-02-26T23:02:26.640Z,72.18
2019-02-26T23:04:59.471Z,72.08
2019-02-26T23:07:31.275Z,72.31
2019-02-26T23:10:04.034Z,72.59
2019-02-26T23:12:36.494Z,72.56
2019-02-26T23:15:09.667Z,72.62
2019-02-26T23:17:41.393Z,72.46
2019-02-26T23:20:13.004Z,72.15
2019-02-26T23:22:45.867Z,71.35
2019-02-26T23:25:18.437Z,70.84
2019-02-26T23:27:49.402Z,70.76
2019-02-26T23:30:22.371Z,69.22
2019-02-26T23:32:55.775Z,67.49
2019-02-26T23:35:26.773Z,66.91
2019-02-26T23:37:58.163Z,66.88
2019-02-26T23:40:29.586Z,66.89
2019-02-26T23:43:01.347Z,65.71
2019-02-26T23:45:32.984Z,67.15
2019-02-26T23:48:07.739Z,68.05
2019-02-26T23:50:38.581Z,68.60
2019-02-26T23:53:09.667Z,69.96
2019-02-26T23:55:46.291Z,70.90
2019-02-26T23:58:14.507Z,71.38
